createdAt,value
2023-04-02T00:01:37.800Z,8.86
2023-04-02T00:04:26.454Z,8.80
2023-04-02T00:06:55.965Z,8.70
2023-04-02T00:09:37.810Z,8.73
2023-04-02T00:12:20.011Z,8.90
2023-04-02T00:14:51.431Z,8.91
2023-04-02T00:17:19.879Z,8.97
2023-04-02T00:19:51.133Z,8.88
2023-04-02T00:22:22.444Z,8.82
2023-04-02T00:24:54.140Z,8.87
2023-04-02T00:27:21.853Z,8.86
2023-04-02T00:29:50.618Z,8.84
2023-04-02T00:32:22.423Z,8.85
2023-04-02T00:34:50.456Z,8.78
2023-04-02T00:37:23.873Z,8.75
2023-04-02T00:39:57.895Z,8.70
2023-04-02T00:42:29.126Z,8.73
2023-04-02T00:44:58.669Z,8.68
2023-04-02T00:47:28.209Z,8.71
2023-04-02T00:49:58.565Z,8.63
2023-04-02T00:52:28.104Z,8.64
2023-04-02T00:55:02.584Z,8.66
2023-04-02T00:57:31.030Z,8.63
2023-04-02T01:00:03.007Z,8.58
2023-04-02T01:02:33.617Z,8.60
2023-04-02T01:05:03.477Z,8.60
2023-04-02T01:07:47.391Z,8.49
2023-04-02T01:10:37.169Z,8.43
2023-04-02T01:13:14.758Z,8.40
2023-04-02T01:15:43.991Z,8.39
2023-04-02T01:18:31.178Z,8.36
2023-04-02T01:21:23.615Z,8.20
2023-04-02T01:23:58.267Z,8.18
2023-04-02T01:26:37.809Z,8.07
2023-04-02T01:29:10.328Z,8.17
2023-04-02T01:31:39.199Z,8.06
2023-04-02T01:34:10.042Z,7.99
2023-04-02T01:36:41.819Z,8.02
2023-04-02T01:39:16.529Z,7.87
2023-04-02T01:41:48.585Z,7.83
2023-04-02T01:44:21.852Z,7.60
2023-04-02T01:46:50.675Z,7.56
2023-04-02T01:49:21.212Z,7.55
2023-04-02T01:51:54.002Z,7.49
2023-04-02T01:54:22.695Z,7.45
2023-04-02T01:56:51.326Z,7.45
2023-04-02T01:59:22.301Z,7.16
2023-04-02T02:01:59.815Z,7.19
2023-04-02T02:04:27.865Z,7.16
2023-04-02T02:06:58.626Z,7.05
2023-04-02T02:09:28.753Z,7.08
2023-04-02T02:11:57.896Z,6.92
2023-04-02T02:14:28.908Z,6.85
2023-04-02T02:16:57.751Z,6.97
2023-04-02T02:19:27.620Z,7.03
2023-04-02T02:21:56.304Z,6.95
2023-04-02T02:24:26.244Z,6.85
2023-04-02T02:27:03.609Z,6.58
2023-04-02T02:29:36.682Z,6.66
2023-04-02T02:32:05.524Z,6.64
2023-04-02T02:34:37.813Z,6.41
2023-04-02T02:37:07.676Z,6.52
2023-04-02T02:39:38.553Z,6.47
2023-04-02T02:42:10.487Z,6.46
2023-04-02T02:44:43.177Z,6.44
2023-04-02T02:47:14.848Z,6.45
2023-04-02T02:49:44.603Z,6.37
2023-04-02T02:52:17.550Z,6.28
2023-04-02T02:54:55.249Z,6.19
2023-04-02T02:57:28.771Z,6.21
2023-04-02T02:59:59.783Z,6.25
2023-04-02T03:02:29.062Z,6.08
2023-04-02T03:04:59.329Z,6.07
2023-04-02T03:07:30.297Z,6.03
2023-04-02T03:10:05.496Z,6.01
2023-04-02T03:12:43.562Z,6.04
2023-04-02T03:15:19.644Z,5.82
2023-04-02T03:17:52.777Z,5.75
2023-04-02T03:20:23.294Z,5.84
2023-04-02T03:22:54.954Z,5.78
2023-04-02T03:25:27.861Z,5.88
2023-04-02T03:28:00.662Z,5.91
2023-04-02T03:30:33.029Z,5.98
2023-04-02T03:33:03.830Z,5.89
2023-04-02T03:35:35.666Z,5.87
2023-04-02T03:38:07.379Z,5.80
2023-04-02T03:40:39.062Z,5.75
2023-04-02T03:43:14.979Z,5.75
2023-04-02T03:45:47.064Z,5.76
2023-04-02T03:48:19.067Z,5.68
2023-04-02T03:50:52.045Z,5.65
2023-04-02T03:53:24.142Z,5.63
2023-04-02T03:55:52.666Z,5.65
2023-04-02T03:58:22.950Z,5.43
2023-04-02T04:00:55.275Z,5.55
2023-04-02T04:03:26.011Z,5.37
2023-04-02T04:05:57.291Z,5.38
2023-04-02T04:08:28.374Z,5.40
2023-04-02T04:10:58.945Z,5.37
2023-04-02T04:13:30.283Z,5.21
2023-04-02T04:16:03.185Z,5.32
2023-04-02T04:18:37.844Z,5.13
2023-04-02T04:21:13.245Z,5.21
2023-04-02T04:23:49.816Z,5.28
2023-04-02T04:26:21.204Z,5.21
2023-04-02T04:28:59.817Z,5.27
2023-04-02T04:31:38.925Z,5.36
2023-04-02T04:34:09.708Z,5.32
2023-04-02T04:36:53.812Z,5.36
2023-04-02T04:39:30.448Z,5.19
2023-04-02T04:42:00.368Z,5.29
2023-04-02T04:44:36.968Z,5.35
2023-04-02T04:47:09.392Z,5.10
2023-04-02T04:49:40.547Z,5.07
2023-04-02T04:52:10.208Z,5.16
2023-04-02T04:54:39.339Z,5.06
2023-04-02T04:57:22.851Z,5.11
2023-04-02T04:59:54.387Z,5.12
2023-04-02T05:02:25.201Z,5.19
2023-04-02T05:04:54.701Z,5.15
2023-04-02T05:07:27.348Z,5.09
2023-04-02T05:09:58.542Z,5.06
2023-04-02T05:12:32.673Z,5.01
2023-04-02T05:15:03.552Z,5.02
2023-04-02T05:17:36.581Z,4.94
2023-04-02T05:20:09.734Z,4.80
2023-04-02T05:22:43.687Z,4.85
2023-04-02T05:25:18.054Z,4.74
2023-04-02T05:27:49.472Z,4.58
2023-04-02T05:30:34.083Z,4.57
2023-04-02T05:33:07.864Z,4.61
2023-04-02T05:35:37.939Z,4.62
2023-04-02T05:38:06.567Z,4.68
2023-04-02T05:40:37.499Z,4.71
2023-04-02T05:43:09.927Z,4.56
2023-04-02T05:45:42.821Z,4.62
2023-04-02T05:48:17.597Z,4.62
2023-04-02T05:50:46.853Z,4.69
2023-04-02T05:53:22.570Z,4.57
2023-04-02T05:55:54.678Z,4.65
2023-04-02T06:01:08.817Z,4.61
2023-04-02T06:03:46.025Z,4.48
2023-04-02T06:06:20.473Z,4.54
2023-04-02T06:08:53.438Z,4.47
2023-04-02T06:11:23.943Z,4.36
2023-04-02T06:13:52.682Z,4.46
2023-04-02T06:16:27.530Z,4.41
2023-04-02T06:18:57.479Z,4.39
2023-04-02T06:21:26.906Z,4.51
2023-04-02T06:23:57.349Z,4.46
2023-04-02T06:26:29.872Z,4.45
2023-04-02T06:29:02.282Z,4.34
2023-04-02T06:31:36.933Z,4.43
2023-04-02T06:34:16.246Z,4.45
2023-04-02T06:36:52.346Z,4.48
2023-04-02T06:39:22.813Z,4.18
2023-04-02T06:41:56.972Z,4.04
2023-04-02T06:44:33.972Z,4.19
2023-04-02T06:47:28.271Z,4.14
2023-04-02T06:50:02.386Z,3.99
2023-04-02T06:52:34.064Z,3.96
2023-04-02T06:55:08.336Z,4.10
2023-04-02T06:57:36.178Z,4.09
2023-04-02T07:00:05.075Z,4.13
2023-04-02T07:02:36.803Z,4.15
2023-04-02T07:05:09.868Z,4.16
2023-04-02T07:07:41.731Z,4.01
2023-04-02T07:10:12.707Z,4.04
2023-04-02T07:12:41.514Z,4.15
2023-04-02T07:15:12.193Z,4.30
2023-04-02T07:17:39.873Z,4.23
2023-04-02T07:20:21.650Z,4.00
2023-04-02T07:22:49.186Z,3.74
2023-04-02T07:25:16.851Z,3.86
2023-04-02T07:27:44.402Z,3.89
2023-04-02T07:30:14.803Z,4.00
2023-04-02T07:32:42.645Z,3.95
2023-04-02T07:35:12.678Z,3.95
2023-04-02T07:37:40.748Z,3.92
2023-04-02T07:40:16.743Z,3.92
2023-04-02T07:42:44.273Z,3.83
2023-04-02T07:45:12.413Z,3.81
2023-04-02T07:47:40.152Z,3.68
2023-04-02T07:50:09.441Z,3.51
2023-04-02T07:52:42.077Z,3.57
2023-04-02T07:55:10.756Z,3.71
2023-04-02T07:57:42.625Z,3.80
2023-04-02T08:00:13.516Z,3.80
2023-04-02T08:02:41.250Z,3.89
2023-04-02T08:05:10.480Z,3.79
2023-04-02T08:07:38.988Z,3.85
2023-04-02T08:10:10.504Z,3.75
2023-04-02T08:12:38.091Z,3.84
2023-04-02T08:15:06.921Z,3.71
2023-04-02T08:17:34.479Z,3.53
2023-04-02T08:20:02.022Z,3.69
2023-04-02T08:22:29.883Z,3.63
2023-04-02T08:24:57.555Z,3.65
2023-04-02T08:27:26.718Z,3.61
2023-04-02T08:29:55.318Z,3.55
2023-04-02T08:32:24.144Z,3.58
2023-04-02T08:34:51.841Z,3.47
2023-04-02T08:37:19.321Z,3.53
2023-04-02T08:39:46.825Z,3.62
2023-04-02T08:42:21.277Z,3.70
2023-04-02T08:45:08.024Z,3.68
2023-04-02T08:47:42.062Z,3.50
2023-04-02T08:50:16.627Z,3.52
2023-04-02T08:52:44.315Z,3.52
2023-04-02T08:55:20.145Z,3.41
2023-04-02T08:57:53.741Z,3.71
2023-04-02T09:00:28.797Z,3.81
2023-04-02T09:02:58.340Z,3.57
2023-04-02T09:05:29.583Z,3.58
2023-04-02T09:08:00.372Z,3.72
2023-04-02T09:10:35.346Z,3.78
2023-04-02T09:13:04.124Z,3.83
2023-04-02T09:15:35.418Z,3.76
2023-04-02T09:18:14.109Z,3.73
2023-04-02T09:20:41.906Z,3.59
2023-04-02T09:23:16.145Z,3.66
2023-04-02T09:25:54.093Z,3.60
2023-04-02T09:28:28.928Z,3.45
2023-04-02T09:31:03.091Z,3.40
2023-04-02T09:33:45.167Z,3.30
2023-04-02T09:36:20.738Z,3.38
2023-04-02T09:38:59.034Z,3.31
2023-04-02T09:41:28.632Z,3.18
2023-04-02T09:44:15.072Z,3.22
2023-04-02T09:46:52.869Z,3.18
2023-04-02T09:49:23.919Z,3.21
2023-04-02T09:52:09.757Z,3.36
2023-04-02T09:54:41.758Z,3.31
2023-04-02T09:57:21.273Z,3.29
2023-04-02T09:59:48.853Z,3.28
2023-04-02T10:02:29.920Z,3.15
2023-04-02T10:04:57.580Z,3.22
2023-04-02T10:07:34.660Z,3.09
2023-04-02T10:10:03.668Z,2.96
2023-04-02T10:12:36.518Z,3.10
2023-04-02T10:15:05.289Z,3.14
2023-04-02T10:17:37.277Z,3.00
2023-04-02T10:20:11.429Z,2.95
2023-04-02T10:22:38.904Z,2.94
2023-04-02T10:25:14.760Z,2.98
2023-04-02T10:27:48.266Z,2.96
2023-04-02T10:30:20.400Z,3.08
2023-04-02T10:32:51.357Z,2.98
2023-04-02T10:35:26.100Z,2.93
2023-04-02T10:38:15.790Z,2.82
2023-04-02T10:40:47.594Z,3.01
2023-04-02T10:43:40.593Z,2.90
2023-04-02T10:46:13.725Z,3.00
2023-04-02T10:48:48.596Z,3.05
2023-04-02T10:51:29.691Z,3.15
2023-04-02T10:54:00.216Z,3.03
2023-04-02T10:56:29.833Z,3.20
2023-04-02T10:59:02.488Z,3.07
2023-04-02T11:01:31.460Z,3.18
2023-04-02T11:04:02.851Z,3.24
2023-04-02T11:06:33.314Z,3.14
2023-04-02T11:09:04.890Z,3.17
2023-04-02T11:11:36.607Z,3.19
2023-04-02T11:14:06.433Z,3.16
2023-04-02T11:16:36.084Z,3.21
2023-04-02T11:19:22.612Z,3.33
2023-04-02T11:21:58.605Z,3.39
2023-04-02T11:24:37.894Z,3.34
2023-04-02T11:27:08.163Z,3.48
2023-04-02T11:29:37.581Z,3.13
2023-04-02T11:32:31.156Z,3.02
2023-04-02T11:35:06.681Z,3.06
2023-04-02T11:37:38.307Z,3.07
2023-04-02T11:40:46.743Z,3.09
2023-04-02T11:43:49.277Z,3.20
2023-04-02T11:46:46.432Z,3.28
2023-04-02T11:49:41.460Z,3.36
2023-04-02T11:52:27.420Z,3.43
2023-04-02T11:55:01.562Z,3.42
2023-04-02T11:57:51.084Z,3.34
2023-04-02T12:00:27.302Z,3.32
2023-04-02T12:03:06.786Z,3.39
2023-04-02T12:05:37.755Z,3.38
2023-04-02T12:08:16.619Z,3.36
2023-04-02T12:10:57.988Z,3.36
2023-04-02T12:13:54.188Z,3.36
2023-04-02T12:16:22.887Z,3.40
2023-04-02T12:18:54.038Z,3.35
2023-04-02T12:21:23.606Z,3.40
2023-04-02T12:23:53.867Z,3.56
2023-04-02T12:26:32.004Z,3.63
2023-04-02T12:29:24.742Z,3.58
2023-04-02T12:31:52.410Z,3.52
2023-04-02T12:34:21.361Z,3.53
2023-04-02T12:36:53.962Z,3.51
2023-04-02T12:39:21.900Z,3.62
2023-04-02T12:41:49.583Z,3.68
2023-04-02T12:44:18.852Z,3.69
2023-04-02T12:46:48.491Z,3.78
2023-04-02T12:49:33.215Z,3.78
2023-04-02T12:52:03.343Z,3.81
2023-04-02T12:54:34.352Z,3.79
2023-04-02T12:57:23.765Z,3.67
2023-04-02T12:59:51.348Z,3.57
2023-04-02T13:02:21.793Z,3.48
2023-04-02T13:04:50.229Z,3.49
2023-04-02T13:07:18.505Z,3.67
2023-04-02T13:09:48.401Z,3.62
2023-04-02T13:12:26.734Z,3.70
2023-04-02T13:14:55.847Z,3.40
2023-04-02T13:17:45.629Z,3.44
2023-04-02T13:20:38.522Z,3.38
2023-04-02T13:23:24.828Z,3.37
2023-04-02T13:25:52.810Z,3.34
2023-04-02T13:28:20.574Z,3.51
2023-04-02T13:30:48.225Z,3.41
2023-04-02T13:33:17.442Z,3.39
2023-04-02T13:35:45.415Z,3.46
2023-04-02T13:38:13.017Z,3.37
2023-04-02T13:40:41.243Z,3.36
2023-04-02T13:43:09.141Z,3.43
2023-04-02T13:45:38.562Z,3.45
2023-04-02T13:48:07.244Z,3.46
2023-04-02T13:50:37.181Z,3.42
2023-04-02T13:53:07.817Z,3.53
2023-04-02T13:55:39.637Z,3.54
2023-04-02T13:58:07.123Z,3.58
2023-04-02T14:00:36.764Z,3.51
2023-04-02T14:03:07.287Z,3.42
2023-04-02T14:05:41.713Z,3.47
2023-04-02T14:08:11.755Z,3.54
2023-04-02T14:10:50.553Z,3.45
2023-04-02T14:13:21.191Z,3.58
2023-04-02T14:15:56.307Z,3.63
2023-04-02T14:18:32.847Z,3.71
2023-04-02T14:21:08.866Z,3.69
2023-04-02T14:23:47.984Z,3.57
2023-04-02T14:26:22.243Z,3.43
2023-04-02T14:28:57.389Z,3.48
2023-04-02T14:31:28.981Z,3.55
2023-04-02T14:34:03.693Z,3.54
2023-04-02T14:36:40.080Z,3.63
2023-04-02T14:39:13.326Z,3.54
2023-04-02T14:41:44.074Z,3.28
2023-04-02T14:44:12.460Z,3.39
2023-04-02T14:46:41.979Z,3.44
2023-04-02T14:49:20.857Z,3.49
2023-04-02T14:51:50.737Z,3.50
2023-04-02T14:54:23.583Z,3.47
2023-04-02T14:56:54.054Z,3.37
2023-04-02T14:59:26.741Z,3.37
2023-04-02T15:01:57.568Z,3.35
2023-04-02T15:04:28.612Z,3.50
2023-04-02T15:07:04.273Z,3.50
2023-04-02T15:09:36.659Z,3.44
2023-04-02T15:12:08.644Z,3.56
2023-04-02T15:14:40.215Z,3.51
2023-04-02T15:17:11.382Z,3.57
2023-04-02T15:19:39.052Z,3.67
2023-04-02T15:22:18.601Z,3.68
2023-04-02T15:24:52.379Z,3.61
2023-04-02T15:27:29.139Z,3.72
2023-04-02T15:30:01.295Z,3.77
2023-04-02T15:32:31.811Z,3.79
2023-04-02T15:35:02.588Z,3.86
2023-04-02T15:37:36.375Z,3.85
2023-04-02T15:40:24.781Z,3.93
2023-04-02T15:42:56.089Z,3.68
2023-04-02T15:45:28.131Z,3.68
2023-04-02T15:48:20.380Z,3.63
2023-04-02T15:50:57.708Z,3.65
2023-04-02T15:53:34.752Z,3.68
2023-04-02T15:56:09.679Z,3.49
2023-04-02T15:58:48.405Z,3.68
2023-04-02T16:01:18.486Z,3.62
2023-04-02T16:04:04.506Z,3.63
2023-04-02T16:06:38.888Z,3.53
2023-04-02T16:09:19.441Z,3.50
2023-04-02T16:11:46.954Z,3.51
2023-04-02T16:14:22.315Z,3.58
2023-04-02T16:16:51.745Z,3.61
2023-04-02T16:19:25.589Z,3.69
2023-04-02T16:21:59.706Z,3.64
2023-04-02T16:24:28.494Z,3.50
2023-04-02T16:27:00.048Z,3.57
2023-04-02T16:29:47.531Z,3.64
2023-04-02T16:32:26.422Z,3.44
2023-04-02T16:35:12.947Z,3.52
2023-04-02T16:37:49.701Z,3.59
2023-04-02T16:40:29.774Z,3.54
2023-04-02T16:43:04.741Z,3.60
2023-04-02T16:45:36.728Z,3.68
2023-04-02T16:48:10.799Z,3.69
2023-04-02T16:50:45.223Z,3.59
2023-04-02T16:53:22.173Z,3.63
2023-04-02T16:56:03.311Z,3.66
2023-04-02T16:58:43.500Z,3.57
2023-04-02T17:01:17.947Z,3.71
2023-04-02T17:04:02.559Z,3.79
2023-04-02T17:06:39.485Z,3.71
2023-04-02T17:09:12.705Z,3.76
2023-04-02T17:11:43.102Z,3.78
2023-04-02T17:14:21.071Z,3.65
2023-04-02T17:16:51.795Z,3.64
2023-04-02T17:19:20.781Z,3.71
2023-04-02T17:21:51.982Z,3.71
2023-04-02T17:24:24.505Z,3.68
2023-04-02T17:26:55.612Z,3.56
2023-04-02T17:29:28.535Z,3.71
2023-04-02T17:32:00.836Z,3.72
2023-04-02T17:34:28.972Z,3.73
2023-04-02T17:37:03.894Z,3.76
2023-04-02T17:39:36.196Z,3.72
2023-04-02T17:42:15.571Z,3.69
2023-04-02T17:44:49.442Z,3.67
2023-04-02T17:47:21.056Z,3.72
2023-04-02T17:49:59.572Z,3.75
2023-04-02T17:52:31.303Z,3.75
2023-04-02T17:55:05.785Z,3.74
2023-04-02T17:57:44.263Z,3.68
2023-04-02T18:00:20.377Z,3.69
2023-04-02T18:02:59.760Z,3.73
2023-04-02T18:05:31.443Z,3.66
2023-04-02T18:08:07.971Z,3.67
2023-04-02T18:10:39.749Z,3.67
2023-04-02T18:13:16.492Z,3.71
2023-04-02T18:15:57.668Z,3.64
2023-04-02T18:18:34.867Z,3.60
2023-04-02T18:21:09.379Z,3.61
2023-04-02T18:23:45.603Z,3.64
2023-04-02T18:26:17.749Z,3.70
2023-04-02T18:28:53.101Z,3.61
2023-04-02T18:31:28.338Z,3.60
2023-04-02T18:34:10.997Z,3.61
2023-04-02T18:36:43.547Z,3.65
2023-04-02T18:39:15.505Z,3.69
2023-04-02T18:41:47.192Z,3.64
2023-04-02T18:44:23.737Z,3.58
2023-04-02T18:46:53.382Z,3.61
2023-04-02T18:49:27.214Z,3.64
2023-04-02T18:51:58.561Z,3.68
2023-04-02T18:54:30.014Z,3.72
2023-04-02T18:56:57.597Z,3.69
2023-04-02T18:59:40.065Z,3.68
2023-04-02T19:02:25.383Z,3.72
2023-04-02T19:04:59.151Z,3.77
2023-04-02T19:07:29.093Z,3.74
2023-04-02T19:09:57.808Z,3.44
2023-04-02T19:12:25.492Z,3.56
2023-04-02T19:14:56.083Z,3.53
2023-04-02T19:17:29.192Z,3.56
2023-04-02T19:20:05.344Z,3.51
2023-04-02T19:22:40.458Z,3.57
2023-04-02T19:25:28.675Z,3.61
2023-04-02T19:28:08.932Z,3.64
2023-04-02T19:31:00.250Z,3.58
2023-04-02T19:33:36.114Z,3.58
2023-04-02T19:36:09.969Z,3.53
2023-04-02T19:38:52.772Z,3.55
2023-04-02T19:41:26.437Z,3.45
2023-04-02T19:43:54.255Z,3.47
2023-04-02T19:46:23.191Z,3.48
2023-04-02T19:48:57.454Z,3.50
2023-04-02T19:51:25.056Z,3.37
2023-04-02T19:53:52.701Z,3.21
2023-04-02T19:56:21.843Z,3.25
2023-04-02T19:58:49.376Z,3.26
2023-04-02T20:01:17.142Z,3.37
2023-04-02T20:03:46.112Z,3.43
2023-04-02T20:06:13.604Z,3.40
2023-04-02T20:08:41.081Z,3.47
2023-04-02T20:11:08.772Z,3.51
2023-04-02T20:13:36.508Z,3.56
2023-04-02T20:16:05.690Z,3.61
2023-04-02T20:18:33.282Z,3.63
2023-04-02T20:21:06.456Z,3.64
2023-04-02T20:23:34.273Z,3.57
2023-04-02T20:26:02.606Z,3.61
2023-04-02T20:28:30.944Z,3.54
2023-04-02T20:31:07.971Z,3.51
2023-04-02T20:33:36.631Z,3.62
2023-04-02T20:36:07.378Z,3.63
2023-04-02T20:38:35.832Z,3.62
2023-04-02T20:41:04.925Z,3.65
2023-04-02T20:43:32.700Z,3.54
2023-04-02T20:46:03.767Z,3.50
2023-04-02T20:48:32.307Z,3.58
2023-04-02T20:51:00.562Z,3.66
2023-04-02T20:53:31.762Z,3.68
2023-04-02T20:56:03.743Z,3.65
2023-04-02T20:58:31.287Z,3.60
2023-04-02T21:01:07.526Z,3.55
2023-04-02T21:03:35.036Z,3.64
2023-04-02T21:06:02.722Z,3.71
2023-04-02T21:08:31.539Z,3.72
2023-04-02T21:11:03.520Z,3.79
2023-04-02T21:13:31.610Z,3.76
2023-04-02T21:15:59.517Z,3.76
2023-04-02T21:18:27.256Z,3.76
2023-04-02T21:20:59.544Z,3.79
2023-04-02T21:23:27.346Z,3.71
2023-04-02T21:26:00.829Z,3.69
2023-04-02T21:28:29.135Z,3.75
2023-04-02T21:31:03.359Z,3.76
2023-04-02T21:33:31.629Z,3.76
2023-04-02T21:36:06.478Z,3.79
2023-04-02T21:38:34.289Z,3.68
2023-04-02T21:41:12.638Z,3.66
2023-04-02T21:43:40.312Z,3.72
2023-04-02T21:46:07.884Z,3.69
2023-04-02T21:48:35.493Z,3.66
2023-04-02T21:51:11.261Z,3.65
2023-04-02T21:53:39.099Z,3.71
2023-04-02T21:56:07.845Z,3.61
2023-04-02T21:58:36.676Z,3.64
2023-04-02T22:01:07.120Z,3.58
2023-04-02T22:03:36.670Z,3.66
2023-04-02T22:06:05.996Z,3.63
2023-04-02T22:08:33.737Z,3.40
2023-04-02T22:11:06.634Z,3.47
2023-04-02T22:13:34.888Z,3.56
2023-04-02T22:16:06.870Z,3.63
2023-04-02T22:18:35.588Z,3.68
2023-04-02T22:21:03.113Z,3.69
2023-04-02T22:23:30.939Z,3.72
2023-04-02T22:25:59.748Z,3.75
2023-04-02T22:28:27.598Z,3.71
2023-04-02T22:30:56.292Z,3.72
2023-04-02T22:33:27.240Z,3.67
2023-04-02T22:35:54.914Z,3.48
2023-04-02T22:38:22.445Z,3.53
2023-04-02T22:40:49.907Z,3.56
2023-04-02T22:43:17.454Z,3.60
2023-04-02T22:45:45.372Z,3.62
2023-04-02T22:48:12.857Z,3.62
2023-04-02T22:50:41.915Z,3.56
2023-04-02T22:53:11.839Z,3.41
2023-04-02T22:55:39.402Z,3.47
2023-04-02T22:58:06.875Z,3.42
2023-04-02T23:00:34.858Z,3.39
2023-04-02T23:03:02.812Z,3.42
2023-04-02T23:05:30.650Z,3.42
2023-04-02T23:07:59.677Z,3.38
2023-04-02T23:10:30.553Z,3.38
2023-04-02T23:12:58.373Z,3.37
2023-04-02T23:15:26.004Z,3.42
2023-04-02T23:17:53.552Z,3.43
2023-04-02T23:20:21.133Z,3.44
2023-04-02T23:22:48.625Z,3.43
2023-04-02T23:25:17.584Z,3.42
2023-04-02T23:27:45.042Z,3.31
2023-04-02T23:30:12.982Z,3.25
2023-04-02T23:32:40.613Z,3.31
2023-04-02T23:35:08.577Z,3.22
2023-04-02T23:37:36.113Z,3.35
2023-04-02T23:40:03.790Z,3.31
2023-04-02T23:42:32.732Z,3.28
2023-04-02T23:45:00.232Z,3.16
2023-04-02T23:47:27.749Z,3.21
2023-04-02T23:49:55.244Z,3.21
2023-04-02T23:52:22.728Z,3.21
2023-04-02T23:54:50.228Z,3.26
2023-04-02T23:57:18.033Z,3.22
2023-04-02T23:59:46.833Z,3.08
